Monday, October 23, 2017, 1:18 PM EDT
Back to Local

KFMH, Otis Air National Guard Base

Location: Mashpee, MA, United States Lat: 41.65
Local Time: 1:18 PM EDT (17:18 GMT) Lon: -70.517
Time Zone: US/Eastern Elev: 131 ft

Show me the last for .
Show Decoded

2017-10-23 12:55 METAR KFMH 231655Z AUTO 16010G16KT 10SM SCT015 22/17 A3031 RMK AO2 =
2017-10-23 12:35 METAR KFMH 231635Z AUTO 17010KT 10SM BKN014 21/17 A3032 RMK AO2 =
2017-10-23 12:15 METAR KFMH 231615Z AUTO 14007KT 10SM BKN015 20/17 A3033 RMK AO2 =
2017-10-23 11:55 METAR KFMH 231555Z AUTO 15009KT 10SM FEW014 20/17 A3034 RMK AO2 =
2017-10-23 11:35 METAR KFMH 231535Z AUTO 15010KT 10SM CLR 21/17 A3035 RMK AO2 =
2017-10-23 11:15 METAR KFMH 231515Z AUTO 13008KT 10SM FEW013 20/17 A3036 RMK AO2 =
2017-10-23 10:55 METAR KFMH 231455Z AUTO 17008KT 10SM FEW011 20/17 A3036 RMK AO2 =
2017-10-23 10:35 METAR KFMH 231435Z AUTO 17007KT 10SM FEW012 19/17 A3037 RMK AO2 =
2017-10-23 10:15 METAR KFMH 231415Z AUTO 16005KT 10SM CLR 17/17 A3037 RMK AO2 =
2017-10-23 09:55 METAR KFMH 231355Z AUTO 13005KT 10SM FEW003 17/17 A3038 RMK AO2 =
2017-10-23 09:35 METAR KFMH 231335Z AUTO 00000KT 7SM BKN002 16/16 A3039 RMK AO2 =
2017-10-23 09:15 METAR KFMH 231315Z AUTO 00000KT M1/4SM FG OVC002 15/15 A3040 RMK AO2 =
2017-10-23 08:55 METAR KFMH 231255Z AUTO 00000KT M1/4SM FG OVC002 14/14 A3040 RMK AO2 =
2017-10-23 08:35 METAR KFMH 231235Z AUTO 00000KT 1SM BR OVC002 13/13 A3040 RMK AO2 VIS 1/2V2 1/2
                 =
2017-10-23 08:15 METAR KFMH 231215Z AUTO 00000KT 1/4SM FG OVC001 11/11 A3040 RMK AO2 =
2017-10-23 07:55 METAR KFMH 231155Z AUTO 00000KT M1/4SM FG OVC002 09/09 A3040 RMK AO2 =
2017-10-23 07:35 METAR KFMH 231135Z AUTO 00000KT M1/4SM FG OVC002 07/07 A3039 RMK AO2 =
2017-10-23 07:15 METAR KFMH 231115Z AUTO 05003KT 9SM BKN001 07/07 A3038 RMK AO2 =
2017-10-23 06:55 METAR KFMH 231055Z AUTO 00000KT 1SM BR BKN001 BKN041 07/07 A3038 RMK AO2 =
2017-10-23 06:35 METAR KFMH 231035Z AUTO 00000KT 9SM BKN001 BKN035 07/07 A3038 RMK AO2 =
2017-10-23 06:15 METAR KFMH 231015Z AUTO 00000KT M1/4SM FG OVC001 08/08 A3038 RMK AO2 =
2017-10-23 05:55 METAR KFMH 230955Z AUTO 06004KT M1/4SM FG OVC001 07/07 A3038 RMK AO2 VIS M1/4V5
                 =
2017-10-23 05:35 METAR KFMH 230935Z AUTO 00000KT 1/2SM FG OVC001 07/08 A3039 RMK AO2 =
2017-10-23 05:15 METAR KFMH 230915Z AUTO 00000KT 1/4SM FG OVC001 07/07 A3039 RMK AO2 =
2017-10-23 04:55 METAR KFMH 230855Z AUTO 00000KT M1/4SM FG OVC001 07/07 A3039 RMK AO2 =
2017-10-23 04:35 METAR KFMH 230835Z AUTO 00000KT 1/4SM FG OVC001 06/06 A3039 RMK AO2 =
2017-10-23 04:15 METAR KFMH 230815Z AUTO 00000KT M1/4SM FG OVC001 06/06 A3039 RMK AO2 =
2017-10-23 03:55 METAR KFMH 230755Z AUTO 00000KT 1/4SM FG OVC001 07/07 A3039 RMK AO2 =
2017-10-23 03:35 METAR KFMH 230735Z AUTO 00000KT M1/4SM FG OVC001 07/07 A3039 RMK AO2 =
2017-10-23 03:15 METAR KFMH 230715Z AUTO 00000KT M1/4SM FG OVC001 07/07 A3040 RMK AO2 =
2017-10-23 02:55 METAR KFMH 230655Z AUTO 00000KT M1/4SM FG OVC001 08/08 A3040 RMK AO2 =
2017-10-23 02:35 METAR KFMH 230635Z AUTO 00000KT 3SM BR CLR 07/07 A3040 RMK AO2 =
2017-10-23 02:15 METAR KFMH 230615Z AUTO 00000KT M1/4SM FG VV000 08/08 A3041 RMK AO2 =
2017-10-23 01:55 METAR KFMH 230555Z AUTO 00000KT 1 1/4SM BR CLR 08/08 A3041 RMK AO2 =
2017-10-23 01:35 METAR KFMH 230535Z AUTO 00000KT 10SM CLR 08/08 A3041 RMK AO2 =
2017-10-23 01:15 METAR KFMH 230515Z AUTO 00000KT 2SM BR FEW001 08/08 A3041 RMK AO2 VIS 1 1/4V5 =
2017-10-23 00:55 METAR KFMH 230455Z AUTO 00000KT 1SM BR CLR 08/08 A3042 RMK AO2 =
2017-10-23 00:35 METAR KFMH 230435Z AUTO 00000KT 1/4SM FG VV002 09/09 A3042 RMK AO2 =
2017-10-23 00:15 METAR KFMH 230415Z AUTO 00000KT 1/2SM FG VV005 09/09 A3042 RMK AO2 =
2017-10-22 23:55 METAR KFMH 230355Z AUTO 00000KT 1 1/2SM BR SCT001 09/09 A3042 RMK AO2 =
2017-10-22 23:35 METAR KFMH 230335Z AUTO 00000KT M1/4SM FG BKN001 09/09 A3042 RMK AO2 =
2017-10-22 23:15 METAR KFMH 230315Z AUTO 00000KT 3/4SM BR BKN001 09/09 A3042 RMK AO2 =
2017-10-22 22:55 METAR KFMH 230255Z AUTO 00000KT 1/4SM FG BKN001 10/10 A3043 RMK AO2 =
2017-10-22 22:35 METAR KFMH 230235Z AUTO 00000KT M1/4SM FG OVC001 09/09 A3043 RMK AO2 =
2017-10-22 22:15 METAR KFMH 230215Z AUTO 00000KT M1/4SM FG OVC001 11/11 A3043 RMK AO2 =
2017-10-22 21:55 METAR KFMH 230155Z AUTO 00000KT M1/4SM FG OVC001 11/11 A3043 RMK AO2 =
2017-10-22 21:35 METAR KFMH 230135Z AUTO 00000KT 6SM BR CLR 11/11 A3042 RMK AO2 =
2017-10-22 21:15 METAR KFMH 230115Z AUTO 00000KT 2 1/2SM BR CLR 12/12 A3042 RMK AO2 =
2017-10-22 20:15 METAR KFMH 230015Z AUTO 00000KT 10SM CLR 13/13 A3041 RMK AO2 =
2017-10-22 19:55 METAR KFMH 222355Z AUTO 00000KT 10SM CLR 12/12 A3041 RMK AO2 =
2017-10-22 19:35 METAR KFMH 222335Z AUTO 00000KT 10SM CLR 12/12 A3041 RMK AO2 =
2017-10-22 19:15 METAR KFMH 222315Z AUTO 00000KT 10SM CLR 13/12 A3041 RMK AO2 =
2017-10-22 18:55 METAR KFMH 222255Z AUTO 00000KT 10SM CLR 15/13 A3041 RMK AO2 =
2017-10-22 18:35 METAR KFMH 222235Z AUTO 00000KT 10SM CLR 15/13 A3040 RMK AO2 =
2017-10-22 18:15 METAR KFMH 222215Z AUTO 00000KT 10SM CLR 16/14 A3040 RMK AO2 =
2017-10-22 17:55 METAR KFMH 222155Z AUTO 00000KT 10SM CLR 17/15 A3040 RMK AO2 =
2017-10-22 17:35 METAR KFMH 222135Z AUTO 00000KT 10SM CLR 18/15 A3040 RMK AO2 =
2017-10-22 17:15 METAR KFMH 222115Z AUTO 00000KT 10SM CLR 19/15 A3040 RMK AO2 =
2017-10-22 16:55 METAR KFMH 222055Z AUTO 00000KT 10SM CLR 20/16 A3039 RMK AO2 =
2017-10-22 16:35 METAR KFMH 222035Z AUTO 12005KT 10SM CLR 20/15 A3039 RMK AO2 =
2017-10-22 16:15 METAR KFMH 222015Z AUTO 13006KT 10SM CLR 21/16 A3039 RMK AO2 =
2017-10-22 15:55 METAR KFMH 221955Z AUTO 15006KT 10SM CLR 21/16 A3039 RMK AO2 =
2017-10-22 15:35 METAR KFMH 221935Z AUTO 16004KT 10SM CLR 22/16 A3039 RMK AO2 =
2017-10-22 15:15 METAR KFMH 221915Z AUTO 15006KT 10SM CLR 22/16 A3039 RMK AO2 =
2017-10-22 14:55 METAR KFMH 221855Z AUTO 15006KT 10SM CLR 23/16 A3039 RMK AO2 =
2017-10-22 14:35 METAR KFMH 221835Z AUTO 18007KT 10SM CLR 23/15 A3039 RMK AO2 =
2017-10-22 14:15 METAR KFMH 221815Z AUTO 16006KT 10SM CLR 23/14 A3039 RMK AO2 =
2017-10-22 13:55 METAR KFMH 221755Z AUTO VRB04KT 10SM CLR 24/13 A3039 RMK AO2 =
2017-10-22 13:35 METAR KFMH 221735Z AUTO 15005KT 10SM CLR 24/14 A3039 RMK AO2 =

Support USWX by starting your Amazon purchase here.